Accueil
METAR-TAF:

METAR-TAF

Aéroports :

Aérodrome de Koné

Koné, Nouvelle-Calédonie

latitude: 21-03-12S, longitude: 164-50-18E, altitude: 7 m

METAR: absent

Heure: 17:38 (06:38 UTC)

Prévision

Le bulletin a été fait il y a 1 heure et 38 minutes, à 05:00 UTC
Prévision valable du 27 à 06 UTC au 28 à 06 UTC
Vent 10 kt de sud
Visibilité 10 km ou plus
Nuages épars à une hauteur de 5000 ft
Evoluant progressivement
du 27 à 06 UTC au 27 à 09 UTC
Vent 5 kt de est/nord-est
Evoluant progressivement
du 27 à 22 UTC au 27 à 24 UTC
Vent 12 kt de sud
Probabilité 40% :
Temporairement
du 28 à 01 UTC au 28 à 05 UTC
Vent 15 kt de sud avec des rafales jusqu'à 25 kt

TAF: NWWD 270500Z 2706/2806 18010KT 9999 SCT050 BECMG 2706/2709 07005KT BECMG 2722/2724 18012KT PROB40 TEMPO 2801/2805 17015G25KT

Observations et prévisions météorologiques de plus de 4000 aéroports (messages METAR et TAF).

Les stations disponibles sont représentées par des disques jaunes et rouges sur la carte.

Passer la souris dessus pour voir le nom de la station.

Cliquer dessus pour voir les observations et prévisions météorologiques.

Pour changer de carte: cliquez sur les boutons verts avec une croix noire pour zoomer, sur le bouton vert avec un tiret pour effectuer un zoom arrière, ou sur les flèches vertes pour les cartes adjacentes.


METAR-TAF: